Terminal Aerodrome Forecast
Issued by NWS Upton, NY

Home | Current Version | Previous Version | Text Only | Print | Product List | Glossary On
Versions: 1 2 3 4 5 6 7 8 9 10 11 12 13 14 15 16 17 18 19 20 21 22 23 24 25 26 27 28
000
FTUS41 KOKX 020800 AAA
TAFISP
TAF AMD
KISP 020831Z 0209/0306 VRB05KT 5SM BR SCT008 SCT070
      TEMPO 0209/0213 3SM BR BKN008
     FM021400 23007KT P6SM FEW020 SCT040
     FM021800 19010G16KT P6SM SCT050=

USA.gov is the U.S. government's official web portal to all federal, state and local government web resources and services.